Time;durP1;ratioP1;P1;durP2;ratioP2;P2;SDS_P1;SDS_P2;PMS_P1;PMS_P2;Temp;Humidity;BMP_temperature;BMP_pressure;BME280_temperature;BME280_humidity;BME280_pressure;Samples;Min_cycle;Max_cycle;Signal;HPM_P1;HPM_P2
2022/01/18 00:01:17;;;;;;;22.23;8.23;;;9.00;99.90;;;;;;5008955;28;20232;-24
2022/01/18 00:03:44;;;;;;;19.60;8.07;;;9.00;99.90;;;;;;5007066;28;20241;-24
2022/01/18 00:06:16;;;;;;;22.83;8.17;;;9.00;99.90;;;;;;5007577;28;20690;-24
2022/01/18 00:08:47;;;;;;;23.50;8.53;;;9.00;99.90;;;;;;5008707;28;20206;-24
2022/01/18 00:11:20;;;;;;;20.63;8.73;;;9.00;99.90;;;;;;5008474;28;20198;-24
2022/01/18 00:13:59;;;;;;;25.17;8.47;;;9.00;99.90;;;;;;5022635;28;20236;-24
2022/01/18 00:16:40;;;;;;;19.77;7.93;;;9.00;99.90;;;;;;5008594;28;20205;-24
2022/01/18 00:19:11;;;;;;;23.70;8.27;;;9.00;99.90;;;;;;5007414;28;20322;-24
2022/01/18 00:24:26;;;;;;;18.77;8.53;;;9.10;99.90;;;;;;5008253;28;20202;-24
2022/01/18 00:26:54;;;;;;;24.03;9.17;;;9.00;99.90;;;;;;5006923;28;20665;-24
2022/01/18 00:29:23;;;;;;;23.33;8.23;;;9.00;99.90;;;;;;5007940;28;20236;-24
2022/01/18 00:34:58;;;;;;;23.07;9.93;;;9.10;99.90;;;;;;5022200;28;20307;-24
2022/01/18 00:37:37;;;;;;;23.87;8.93;;;9.10;99.90;;;;;;5011366;28;20325;-24
2022/01/18 00:40:06;;;;;;;22.97;9.20;;;9.10;99.90;;;;;;5007907;28;20233;-24
2022/01/18 00:42:33;;;;;;;24.57;8.77;;;9.10;99.90;;;;;;5007219;28;20578;-24
2022/01/18 00:45:04;;;;;;;27.37;9.53;;;9.10;99.90;;;;;;5007520;28;20201;-24
2022/01/18 00:47:33;;;;;;;24.97;9.77;;;9.10;99.90;;;;;;5005718;28;20232;-24
2022/01/18 00:50:02;;;;;;;24.00;9.70;;;9.10;99.90;;;;;;5007134;28;20256;-24
2022/01/18 00:52:34;;;;;;;25.33;9.27;;;9.10;99.90;;;;;;5038311;28;20229;-24
2022/01/18 00:55:04;;;;;;;23.37;9.30;;;9.10;99.90;;;;;;5006866;28;20300;-24
2022/01/18 00:57:33;;;;;;;22.60;9.97;;;9.10;99.90;;;;;;5012132;28;20197;-24
2022/01/18 01:00:03;;;;;;;24.50;9.90;;;9.00;99.90;;;;;;5007712;28;20226;-24
2022/01/18 01:02:35;;;;;;;22.20;9.70;;;9.00;99.90;;;;;;5019679;28;20204;-24
2022/01/18 01:05:03;;;;;;;28.80;10.07;;;9.00;99.90;;;;;;5037946;28;20197;-24
2022/01/18 01:07:30;;;;;;;28.27;11.37;;;9.00;99.90;;;;;;5006457;28;20791;-24
2022/01/18 01:10:17;;;;;;;23.97;9.83;;;9.00;99.90;;;;;;5007809;28;20229;-24
2022/01/18 01:12:44;;;;;;;24.70;10.13;;;9.00;99.90;;;;;;5019927;28;20198;-24
2022/01/18 01:15:15;;;;;;;23.93;9.97;;;9.00;99.90;;;;;;5006769;28;20201;-24
2022/01/18 01:17:53;;;;;;;24.63;9.90;;;9.10;99.90;;;;;;5022294;28;20275;-24
2022/01/18 01:34:37;;;;;;;24.60;11.30;;;9.00;99.90;;;;;;5006151;28;20869;-24
2022/01/18 01:45:35;;;;;;;25.23;11.33;;;9.10;99.90;;;;;;5006760;28;20236;-24
2022/01/18 01:48:03;;;;;;;25.13;10.53;;;9.10;99.90;;;;;;5022451;28;20197;-24
2022/01/18 01:50:51;;;;;;;28.10;12.47;;;9.10;99.90;;;;;;5005971;28;20255;-24
2022/01/18 01:53:21;;;;;;;27.57;11.20;;;9.10;99.90;;;;;;5019190;28;20210;-24
2022/01/18 01:55:49;;;;;;;30.33;11.97;;;9.10;99.90;;;;;;5006849;28;20245;-24
2022/01/18 01:58:21;;;;;;;27.47;11.87;;;9.10;99.90;;;;;;5019869;28;20282;-24
2022/01/18 02:00:54;;;;;;;22.27;11.17;;;9.10;99.90;;;;;;5020641;28;20304;-24
2022/01/18 02:03:25;;;;;;;32.40;12.77;;;9.20;99.90;;;;;;5004002;28;20252;-24
2022/01/18 02:05:55;;;;;;;27.37;12.40;;;9.10;99.90;;;;;;5001490;28;20212;-24
2022/01/18 02:08:22;;;;;;;29.20;12.77;;;9.10;99.90;;;;;;5016164;28;20573;-24
2022/01/18 02:10:52;;;;;;;31.50;13.27;;;9.10;99.90;;;;;;5040446;28;20209;-24
2022/01/18 02:13:19;;;;;;;27.33;13.23;;;9.20;99.90;;;;;;5006134;28;20270;-24
2022/01/18 02:21:46;;;;;;;30.53;13.10;;;9.20;99.90;;;;;;5029212;28;20272;-24
2022/01/18 02:24:07;;;;;;;28.20;13.20;;;9.20;99.90;;;;;;5006620;28;20212;-24
2022/01/18 02:26:35;;;;;;;28.57;13.20;;;9.20;99.90;;;;;;5006645;28;20212;-24
2022/01/18 02:29:08;;;;;;;27.60;13.33;;;9.20;99.90;;;;;;5005809;28;20241;-24
2022/01/18 02:31:36;;;;;;;32.97;13.70;;;9.20;99.90;;;;;;5006356;28;20206;-24
2022/01/18 02:34:11;;;;;;;35.43;14.23;;;9.20;99.90;;;;;;5004859;28;20206;-24
2022/01/18 02:36:41;;;;;;;38.83;15.13;;;9.10;99.90;;;;;;5004056;28;20248;-24
2022/01/18 02:39:12;;;;;;;34.67;13.83;;;9.10;99.90;;;;;;5004181;28;20252;-24
2022/01/18 02:41:40;;;;;;;43.07;15.03;;;9.10;99.90;;;;;;5005263;28;20307;-24
2022/01/18 02:44:11;;;;;;;32.87;14.70;;;9.10;99.90;;;;;;5005990;28;20208;-24
2022/01/18 02:46:42;;;;;;;36.13;14.90;;;9.10;99.90;;;;;;5007297;28;20619;-24
2022/01/18 02:49:09;;;;;;;37.73;15.57;;;9.10;99.90;;;;;;5008901;28;20198;-24
2022/01/18 02:51:37;;;;;;;33.37;13.97;;;9.00;99.90;;;;;;5009810;28;20241;-24
2022/01/18 02:54:08;;;;;;;32.83;15.23;;;9.00;99.90;;;;;;5009983;28;20202;-24
2022/01/18 02:56:46;;;;;;;36.43;14.93;;;9.00;99.90;;;;;;5010025;28;20663;-24
2022/01/18 02:59:34;;;;;;;32.23;15.00;;;9.00;99.90;;;;;;5009914;28;20701;-24
2022/01/18 03:05:16;;;;;;;38.30;14.33;;;9.00;99.90;;;;;;5008971;28;20197;-24
2022/01/18 03:07:45;;;;;;;34.30;14.90;;;8.90;99.90;;;;;;5009279;28;20194;-24
2022/01/18 03:10:14;;;;;;;34.50;15.10;;;8.90;99.90;;;;;;5006857;28;20300;-24
2022/01/18 03:12:44;;;;;;;38.53;15.47;;;8.90;99.90;;;;;;5023809;28;20595;-24
2022/01/18 03:15:12;;;;;;;33.70;14.37;;;8.90;99.90;;;;;;5009887;28;20199;-24
2022/01/18 03:17:42;;;;;;;31.00;15.17;;;8.90;99.90;;;;;;5010222;28;20308;-24
2022/01/18 03:20:12;;;;;;;40.53;15.23;;;8.90;99.90;;;;;;5006724;28;20249;-24
2022/01/18 03:22:40;;;;;;;28.97;14.57;;;8.90;99.90;;;;;;5009945;28;20267;-24
2022/01/18 03:25:24;;;;;;;34.97;15.77;;;8.90;99.90;;;;;;5009385;28;20267;-24
2022/01/18 03:28:06;;;;;;;30.80;14.53;;;8.90;99.90;;;;;;5009970;28;20209;-24
2022/01/18 03:30:44;;;;;;;32.70;15.27;;;8.90;99.90;;;;;;5008660;28;20208;-24
2022/01/18 03:33:17;;;;;;;31.90;15.77;;;8.90;99.90;;;;;;5023531;28;20703;-24
2022/01/18 03:35:47;;;;;;;38.20;15.03;;;8.90;99.90;;;;;;5008287;28;20208;-26
2022/01/18 03:38:17;;;;;;;34.03;14.97;;;8.90;99.90;;;;;;5009762;28;20541;-26
2022/01/18 03:40:45;;;;;;;28.67;14.80;;;8.90;99.90;;;;;;5009186;28;20221;-26
2022/01/18 03:43:13;;;;;;;44.60;15.93;;;8.90;99.90;;;;;;5008941;28;20202;-26
2022/01/18 03:45:46;;;;;;;37.30;15.47;;;8.90;99.90;;;;;;5008707;28;20198;-26
2022/01/18 03:48:37;;;;;;;36.40;16.00;;;8.90;99.90;;;;;;5009147;28;20260;-26
2022/01/18 03:51:08;;;;;;;43.73;16.63;;;8.90;99.90;;;;;;5006502;28;20237;-26
2022/01/18 03:53:40;;;;;;;38.23;15.10;;;8.90;99.90;;;;;;5011599;28;20209;-26
2022/01/18 03:56:09;;;;;;;42.90;15.93;;;8.90;99.90;;;;;;5007108;28;20233;-25
2022/01/18 03:58:37;;;;;;;34.10;16.80;;;8.90;99.90;;;;;;5007571;28;20263;-26
2022/01/18 04:01:04;;;;;;;40.30;17.37;;;8.90;99.90;;;;;;5008188;28;20217;-26
2022/01/18 04:03:32;;;;;;;39.40;17.40;;;8.90;99.90;;;;;;5007653;28;20301;-26
2022/01/18 04:05:59;;;;;;;42.90;18.60;;;8.90;99.90;;;;;;5004423;28;20213;-26
2022/01/18 04:08:27;;;;;;;46.20;16.87;;;8.90;99.90;;;;;;4992035;28;20728;-26
2022/01/18 04:10:56;;;;;;;37.80;17.07;;;8.90;99.90;;;;;;5007650;28;20205;-26
2022/01/18 04:13:26;;;;;;;48.60;18.37;;;8.90;99.90;;;;;;5008112;28;20702;-26
2022/01/18 04:15:53;;;;;;;42.67;18.30;;;8.90;99.90;;;;;;5009944;28;20205;-26
2022/01/18 04:18:28;;;;;;;40.60;17.83;;;8.90;99.90;;;;;;5008332;28;20208;-25
2022/01/18 04:29:02;;;;;;;42.67;19.13;;;8.90;99.90;;;;;;5007737;28;20206;-26
2022/01/18 04:31:29;;;;;;;51.90;19.20;;;8.90;99.90;;;;;;5007481;28;20210;-26
2022/01/18 04:33:57;;;;;;;45.63;19.00;;;8.90;99.90;;;;;;5005916;28;20400;-26
2022/01/18 04:36:29;;;;;;;49.43;20.03;;;8.90;99.90;;;;;;5000489;28;20257;-26
2022/01/18 04:39:01;;;;;;;50.07;20.00;;;8.90;99.90;;;;;;5006588;28;20213;-26
2022/01/18 04:41:31;;;;;;;50.50;19.87;;;8.90;99.90;;;;;;5007790;28;20316;-26
2022/01/18 04:49:20;;;;;;;60.63;20.37;;;8.90;99.90;;;;;;5006938;28;20209;-26
2022/01/18 04:51:49;;;;;;;41.53;18.73;;;8.90;99.90;;;;;;5008023;28;20269;-26
2022/01/18 04:54:17;;;;;;;49.17;19.23;;;8.90;99.90;;;;;;5038717;28;20209;-26
2022/01/18 04:59:13;;;;;;;62.83;19.03;;;8.90;99.90;;;;;;5022775;28;20205;-26
2022/01/18 05:01:42;;;;;;;58.57;18.80;;;8.90;99.90;;;;;;5005084;28;20226;-26
2022/01/18 05:04:10;;;;;;;50.73;19.50;;;8.90;99.90;;;;;;5004379;28;20211;-26
2022/01/18 05:06:38;;;;;;;49.23;18.93;;;8.90;99.90;;;;;;5005715;28;20252;-26
2022/01/18 05:09:08;;;;;;;54.40;19.40;;;8.90;99.90;;;;;;5004724;28;20244;-26
2022/01/18 05:11:48;;;;;;;60.87;21.60;;;8.80;99.90;;;;;;5007813;28;20630;-26
2022/01/18 05:14:37;;;;;;;56.17;22.23;;;8.80;99.90;;;;;;5007039;28;20213;-26
2022/01/18 05:25:15;;;;;;;51.90;21.20;;;8.70;99.90;;;;;;5001851;28;20276;-26
2022/01/18 05:27:44;;;;;;;47.13;20.77;;;8.70;99.90;;;;;;5003279;28;20201;-26
2022/01/18 05:30:14;;;;;;;55.53;22.27;;;8.70;99.90;;;;;;5020988;28;20236;-26
2022/01/18 05:32:43;;;;;;;47.53;21.67;;;8.70;99.90;;;;;;5007817;28;20213;-26
2022/01/18 05:35:13;;;;;;;43.93;20.37;;;8.60;99.90;;;;;;5006016;28;20660;-26
2022/01/18 05:37:40;;;;;;;44.57;21.40;;;8.60;99.90;;;;;;5004623;28;20751;-26
2022/01/18 05:40:08;;;;;;;42.90;20.57;;;8.60;99.90;;;;;;5007133;28;20204;-26
2022/01/18 05:42:37;;;;;;;38.73;20.23;;;8.60;99.90;;;;;;5007103;28;20230;-26
2022/01/18 05:45:06;;;;;;;37.07;19.17;;;8.60;99.90;;;;;;5007154;28;20583;-26
2022/01/18 05:47:33;;;;;;;32.60;17.53;;;8.60;99.90;;;;;;5006891;28;20648;-26
2022/01/18 05:50:02;;;;;;;38.87;18.63;;;8.60;99.90;;;;;;5006102;28;20291;-26
2022/01/18 05:52:33;;;;;;;39.90;18.80;;;8.50;99.90;;;;;;5005811;28;20212;-26
2022/01/18 05:55:01;;;;;;;35.87;17.70;;;8.50;99.90;;;;;;5006534;28;20233;-26
2022/01/18 05:57:29;;;;;;;36.63;17.93;;;8.50;99.90;;;;;;5002540;28;20216;-26
2022/01/18 06:00:05;;;;;;;32.37;16.90;;;8.50;99.90;;;;;;5000562;28;20224;-26
2022/01/18 06:02:48;;;;;;;39.63;17.03;;;8.50;99.90;;;;;;5005001;28;20228;-26
2022/01/18 06:08:03;;;;;;;33.00;16.77;;;8.50;99.90;;;;;;5003346;28;20240;-26
2022/01/18 06:10:30;;;;;;;36.07;16.77;;;8.40;99.90;;;;;;5002829;28;20702;-26
2022/01/18 06:13:01;;;;;;;30.43;16.97;;;8.40;99.90;;;;;;5016535;28;20194;-26
2022/01/18 06:15:29;;;;;;;35.63;16.77;;;8.40;99.90;;;;;;5000342;28;20253;-26
2022/01/18 06:17:59;;;;;;;34.97;16.50;;;8.40;99.90;;;;;;5002820;28;20213;-26
2022/01/18 06:20:29;;;;;;;29.00;15.20;;;8.40;99.90;;;;;;5002109;28;20449;-26
2022/01/18 06:22:56;;;;;;;33.20;16.13;;;8.40;99.90;;;;;;5003897;28;20296;-26
2022/01/18 06:25:30;;;;;;;33.50;15.40;;;8.40;99.90;;;;;;5004935;28;20440;-26
2022/01/18 06:28:01;;;;;;;31.40;14.93;;;8.40;99.90;;;;;;5004200;28;20665;-26
2022/01/18 06:30:31;;;;;;;30.07;14.03;;;8.30;99.90;;;;;;5033006;28;20214;-26
2022/01/18 06:33:01;;;;;;;31.10;14.37;;;8.30;99.90;;;;;;5008223;28;20206;-26
2022/01/18 06:35:28;;;;;;;32.73;14.87;;;8.30;99.90;;;;;;5009256;28;20275;-26
2022/01/18 06:38:00;;;;;;;32.53;13.47;;;8.30;99.90;;;;;;5010417;28;20225;-24
2022/01/18 06:40:27;;;;;;;35.40;15.07;;;8.30;99.90;;;;;;5008129;28;20653;-24
2022/01/18 06:42:57;;;;;;;30.57;14.80;;;8.20;99.90;;;;;;5009614;28;20225;-24
2022/01/18 06:45:25;;;;;;;30.77;14.30;;;8.30;99.90;;;;;;5008591;28;20206;-24
2022/01/18 06:47:52;;;;;;;35.33;14.83;;;8.20;99.90;;;;;;5024881;28;20718;-24
2022/01/18 06:50:23;;;;;;;34.53;15.50;;;8.20;99.90;;;;;;5008716;28;20704;-24
2022/01/18 06:52:55;;;;;;;27.50;13.93;;;8.20;99.90;;;;;;5009576;28;20217;-24
2022/01/18 06:55:26;;;;;;;30.47;13.73;;;8.20;99.90;;;;;;5009987;28;20539;-24
2022/01/18 06:57:56;;;;;;;27.90;13.93;;;8.20;99.90;;;;;;5005593;28;20209;-24
2022/01/18 07:00:26;;;;;;;34.27;14.97;;;8.20;99.90;;;;;;5007975;28;20283;-24
2022/01/18 07:02:53;;;;;;;33.73;14.43;;;8.20;99.90;;;;;;5007419;28;20784;-24
2022/01/18 07:05:21;;;;;;;31.73;15.17;;;8.20;99.90;;;;;;5005540;28;20213;-24
2022/01/18 07:07:50;;;;;;;30.33;14.83;;;8.20;99.90;;;;;;5009623;28;20202;-24
2022/01/18 07:10:25;;;;;;;26.03;13.03;;;8.10;99.90;;;;;;5011787;28;20237;-24
2022/01/18 07:13:03;;;;;;;23.33;13.33;;;8.20;99.90;;;;;;5003019;28;20252;-24
2022/01/18 07:15:31;;;;;;;26.00;13.57;;;8.10;99.90;;;;;;5006803;28;20296;-26
2022/01/18 07:18:05;;;;;;;25.63;14.03;;;8.10;99.90;;;;;;5005369;28;20582;-26
2022/01/18 07:20:40;;;;;;;27.83;13.97;;;8.20;99.90;;;;;;5036865;28;20213;-26
2022/01/18 07:23:12;;;;;;;29.20;14.10;;;8.20;99.90;;;;;;5010476;28;20598;-26
2022/01/18 07:25:46;;;;;;;26.23;13.10;;;8.20;99.90;;;;;;5009312;28;20221;-26
2022/01/18 07:28:16;;;;;;;27.23;13.20;;;8.20;99.90;;;;;;5008917;28;20305;-26
2022/01/18 07:30:44;;;;;;;29.23;13.83;;;8.20;99.90;;;;;;5007430;28;20296;-26
2022/01/18 07:33:15;;;;;;;27.40;12.90;;;8.20;99.90;;;;;;5007750;28;20296;-26
2022/01/18 07:35:42;;;;;;;31.10;13.73;;;8.20;99.90;;;;;;5002746;28;20229;-26
2022/01/18 07:38:15;;;;;;;29.70;14.03;;;8.20;99.90;;;;;;4998032;28;20212;-26
2022/01/18 07:40:46;;;;;;;29.30;13.67;;;8.20;99.90;;;;;;5005722;28;20204;-26
2022/01/18 07:43:19;;;;;;;29.53;13.23;;;8.20;99.90;;;;;;5007195;28;20232;-26
2022/01/18 07:45:52;;;;;;;35.37;14.53;;;8.20;99.90;;;;;;5008649;28;20713;-26
2022/01/18 07:48:23;;;;;;;34.80;14.67;;;8.20;99.90;;;;;;5007978;28;20207;-26
2022/01/18 07:50:53;;;;;;;29.93;14.00;;;8.30;99.90;;;;;;5006730;28;20747;-26
2022/01/18 07:53:24;;;;;;;28.80;14.80;;;8.30;99.90;;;;;;5019257;28;20271;-27
2022/01/18 07:55:52;;;;;;;30.00;15.07;;;8.30;99.90;;;;;;5007904;28;20206;-26
2022/01/18 07:58:19;;;;;;;29.57;15.07;;;8.30;99.90;;;;;;5004750;28;21799;-26
2022/01/18 08:00:49;;;;;;;37.47;15.43;;;8.30;99.90;;;;;;5015734;28;20344;-26
2022/01/18 08:03:16;;;;;;;30.33;15.40;;;8.40;99.90;;;;;;5010866;28;20213;-26
2022/01/18 08:05:45;;;;;;;34.53;15.73;;;8.40;99.90;;;;;;5008562;28;20637;-26
2022/01/18 08:08:14;;;;;;;32.10;15.60;;;8.40;99.90;;;;;;5008873;28;20561;-26
2022/01/18 08:10:42;;;;;;;29.87;15.80;;;8.40;99.90;;;;;;5008707;28;20272;-26
2022/01/18 08:13:11;;;;;;;31.50;15.77;;;8.40;99.90;;;;;;5007946;28;20569;-26
2022/01/18 08:15:42;;;;;;;27.07;15.27;;;8.50;99.90;;;;;;5008438;28;20209;-26
2022/01/18 08:18:13;;;;;;;32.63;17.20;;;8.50;99.90;;;;;;4997329;28;20292;-26
2022/01/18 08:20:44;;;;;;;31.77;16.03;;;8.50;99.90;;;;;;5007560;28;20267;-26
2022/01/18 08:23:11;;;;;;;38.27;18.07;;;8.50;99.90;;;;;;4997618;28;20221;-26
2022/01/18 08:25:39;;;;;;;33.53;16.57;;;8.60;99.90;;;;;;5006746;28;20738;-26
2022/01/18 08:28:11;;;;;;;34.70;16.77;;;8.60;99.90;;;;;;5005132;28;20215;-26
2022/01/18 08:30:40;;;;;;;32.47;15.37;;;8.60;99.90;;;;;;5006493;28;20208;-26
2022/01/18 08:33:14;;;;;;;29.33;15.53;;;8.60;99.90;;;;;;5007360;28;20305;-25
2022/01/18 08:35:44;;;;;;;30.90;15.97;;;8.70;99.90;;;;;;5003343;28;20212;-26
2022/01/18 08:38:16;;;;;;;29.03;14.73;;;8.70;99.90;;;;;;5008244;28;20214;-26
2022/01/18 08:40:44;;;;;;;30.03;14.93;;;8.70;99.90;;;;;;5007743;28;20324;-26
2022/01/18 08:43:11;;;;;;;36.17;16.13;;;8.70;99.90;;;;;;5009679;28;20238;-26
2022/01/18 08:45:38;;;;;;;36.10;15.17;;;8.70;99.90;;;;;;5006032;28;20236;-26
2022/01/18 08:48:06;;;;;;;32.37;15.03;;;8.70;99.90;;;;;;5007712;28;20206;-26
2022/01/18 08:50:33;;;;;;;29.93;14.77;;;8.80;99.90;;;;;;5006809;28;20243;-26
2022/01/18 08:53:01;;;;;;;30.57;14.77;;;8.80;99.90;;;;;;5039300;28;20609;-26
2022/01/18 08:55:34;;;;;;;28.80;15.03;;;8.80;99.90;;;;;;5007638;28;20656;-26
2022/01/18 08:58:08;;;;;;;31.77;14.90;;;8.90;99.90;;;;;;5006326;28;20216;-26
2022/01/18 09:00:35;;;;;;;30.67;14.90;;;8.90;99.90;;;;;;5007545;28;20308;-26
2022/01/18 09:03:05;;;;;;;38.50;15.93;;;9.00;99.90;;;;;;5007668;28;20268;-26
2022/01/18 09:05:33;;;;;;;35.60;17.30;;;9.00;99.90;;;;;;5016747;28;20213;-26
2022/01/18 09:08:05;;;;;;;33.73;15.57;;;9.00;99.90;;;;;;5006680;28;20321;-25
2022/01/18 09:10:39;;;;;;;36.30;16.37;;;9.10;99.90;;;;;;5007425;28;20208;-26
2022/01/18 09:13:10;;;;;;;38.13;17.60;;;9.10;99.90;;;;;;5006827;28;20218;-26
2022/01/18 09:15:37;;;;;;;33.57;15.93;;;9.10;99.90;;;;;;5006975;28;20259;-26
2022/01/18 09:18:05;;;;;;;36.63;16.30;;;9.20;99.90;;;;;;5006963;28;20209;-26
2022/01/18 09:20:32;;;;;;;36.67;16.23;;;9.30;99.90;;;;;;5006528;28;20304;-26
2022/01/18 09:23:02;;;;;;;35.77;16.57;;;9.30;99.90;;;;;;5003323;28;20222;-26
2022/01/18 09:25:33;;;;;;;32.40;15.80;;;9.30;99.90;;;;;;5020772;28;20244;-26
2022/01/18 09:28:01;;;;;;;28.93;15.33;;;9.40;99.90;;;;;;5006230;28;20205;-26
2022/01/18 09:30:29;;;;;;;37.90;17.50;;;9.40;99.90;;;;;;5005236;28;20542;-26
2022/01/18 09:32:58;;;;;;;40.30;18.97;;;9.50;99.90;;;;;;5004851;28;20209;-26
2022/01/18 09:35:26;;;;;;;41.27;18.90;;;9.40;99.90;;;;;;5003416;28;20216;-26
2022/01/18 09:37:58;;;;;;;34.10;18.93;;;9.40;99.90;;;;;;5005399;28;20714;-26
2022/01/18 09:40:33;;;;;;;40.60;18.90;;;9.50;99.90;;;;;;4999410;28;20716;-26
2022/01/18 09:43:07;;;;;;;37.73;18.93;;;9.50;99.90;;;;;;4998785;28;20226;-24
2022/01/18 09:45:39;;;;;;;43.43;19.50;;;9.50;99.90;;;;;;4998233;28;20228;-24
2022/01/18 09:48:11;;;;;;;38.80;19.50;;;9.50;99.90;;;;;;5000538;28;20263;-24
2022/01/18 09:50:41;;;;;;;39.63;19.03;;;9.50;99.90;;;;;;5001791;28;20252;-24
2022/01/18 09:53:12;;;;;;;40.43;19.37;;;9.50;99.90;;;;;;5007566;28;20341;-24
2022/01/18 09:55:42;;;;;;;42.43;21.47;;;9.50;99.90;;;;;;5004928;28;20251;-24
2022/01/18 09:58:11;;;;;;;45.90;19.73;;;9.50;99.90;;;;;;5019419;28;20260;-24
2022/01/18 10:00:44;;;;;;;37.60;17.90;;;9.50;99.90;;;;;;5005905;28;20209;-24
2022/01/18 10:03:29;;;;;;;37.67;17.70;;;9.60;99.90;;;;;;5002190;28;20607;-24
2022/01/18 10:06:03;;;;;;;33.13;17.57;;;9.60;99.90;;;;;;4998858;28;20205;-24
2022/01/18 10:08:46;;;;;;;31.60;16.87;;;9.60;99.90;;;;;;4998039;28;20267;-24
2022/01/18 10:11:17;;;;;;;35.53;16.60;;;9.70;99.90;;;;;;4997732;28;20296;-26
2022/01/18 10:13:49;;;;;;;33.13;15.63;;;9.70;99.90;;;;;;4994353;28;20736;-26
2022/01/18 10:16:21;;;;;;;30.83;15.20;;;9.70;99.90;;;;;;5006514;28;20217;-25
2022/01/18 10:19:03;;;;;;;28.13;14.03;;;9.80;99.90;;;;;;5005729;28;20267;-26
2022/01/18 10:21:35;;;;;;;31.17;15.30;;;9.80;99.90;;;;;;5020650;28;20217;-25
2022/01/18 10:24:16;;;;;;;28.40;13.50;;;9.80;99.90;;;;;;5007383;28;20251;-26
2022/01/18 10:26:46;;;;;;;32.70;13.63;;;9.90;99.90;;;;;;5048577;28;20223;-25
2022/01/18 10:29:17;;;;;;;27.67;14.83;;;9.90;99.90;;;;;;5021336;28;20209;-25
2022/01/18 10:37:07;;;;;;;25.67;12.63;;;10.00;99.90;;;;;;5016765;28;20219;-25
2022/01/18 10:39:39;;;;;;;33.60;14.17;;;10.10;99.90;;;;;;5021558;28;20261;-25
2022/01/18 10:42:17;;;;;;;32.37;15.23;;;10.00;99.90;;;;;;5007030;28;20241;-26
2022/01/18 10:44:47;;;;;;;34.77;15.77;;;10.10;99.90;;;;;;5010305;28;20697;-25
2022/01/18 10:47:17;;;;;;;31.67;13.93;;;10.10;99.90;;;;;;5020500;28;20206;-25
2022/01/18 10:49:47;;;;;;;29.10;12.90;;;10.10;99.90;;;;;;5018658;28;20186;-25
2022/01/18 10:52:22;;;;;;;22.03;11.13;;;10.10;99.90;;;;;;5005379;28;20581;-26
2022/01/18 10:54:56;;;;;;;23.90;11.27;;;10.20;99.90;;;;;;5005068;28;20647;-25
2022/01/18 10:57:28;;;;;;;26.07;12.53;;;10.20;99.90;;;;;;5005470;28;20209;-25
2022/01/18 11:00:06;;;;;;;31.57;12.90;;;10.30;99.90;;;;;;5003952;28;20221;-26
2022/01/18 11:02:38;;;;;;;29.80;12.77;;;10.30;99.90;;;;;;5006253;28;20217;-25
2022/01/18 11:05:11;;;;;;;26.07;12.50;;;10.30;99.90;;;;;;5005575;28;20592;-26
2022/01/18 11:07:43;;;;;;;28.87;11.73;;;10.40;99.90;;;;;;5005644;28;20271;-25
2022/01/18 11:10:12;;;;;;;29.97;14.93;;;10.50;99.90;;;;;;5010020;28;20197;-32
2022/01/18 11:12:58;;;;;;;27.53;15.43;;;10.50;99.90;;;;;;5008379;28;20210;-25
2022/01/18 11:15:27;;;;;;;37.90;16.40;;;10.50;99.90;;;;;;5009388;28;20202;-25
2022/01/18 11:18:02;;;;;;;31.67;16.87;;;10.50;99.90;;;;;;5009527;28;20763;-25
2022/01/18 11:20:32;;;;;;;31.57;16.10;;;10.50;99.90;;;;;;5009776;28;20224;-25
2022/01/18 11:22:59;;;;;;;27.83;15.83;;;10.60;99.90;;;;;;4997710;28;20633;-26
2022/01/18 11:25:32;;;;;;;33.33;16.40;;;10.60;99.90;;;;;;5009641;28;20205;-26
2022/01/18 11:28:04;;;;;;;29.60;16.00;;;10.60;99.90;;;;;;5012447;28;20598;-25
2022/01/18 11:30:34;;;;;;;34.87;16.40;;;10.60;99.90;;;;;;5008773;28;20217;-25
2022/01/18 11:33:05;;;;;;;26.40;15.43;;;10.60;99.90;;;;;;5009349;28;20198;-25
2022/01/18 11:36:07;;;;;;;33.30;15.17;;;10.60;99.90;;;;;;5009093;28;20591;-25
2022/01/18 11:38:48;;;;;;;26.40;15.03;;;10.70;99.90;;;;;;5007846;28;20227;-25
2022/01/18 11:41:26;;;;;;;30.97;14.27;;;10.60;99.90;;;;;;5009734;28;20590;-25
2022/01/18 11:43:59;;;;;;;24.70;12.93;;;10.60;99.90;;;;;;5022961;28;20220;-25
2022/01/18 11:46:36;;;;;;;24.03;12.33;;;10.70;99.90;;;;;;5007352;28;20260;-25
2022/01/18 11:49:33;;;;;;;25.70;11.80;;;10.70;99.90;;;;;;5008221;28;20200;-25
2022/01/18 11:52:03;;;;;;;23.13;11.77;;;10.70;99.90;;;;;;5018953;28;20692;-25
2022/01/18 11:54:45;;;;;;;26.53;11.70;;;10.70;99.90;;;;;;5017058;28;20259;-25
2022/01/18 11:57:24;;;;;;;27.00;11.73;;;10.70;99.90;;;;;;5009437;28;20514;-25
2022/01/18 12:00:12;;;;;;;25.17;11.87;;;10.70;99.90;;;;;;5022309;28;20685;-25
2022/01/18 12:02:45;;;;;;;24.10;12.20;;;10.70;99.90;;;;;;5009812;28;20256;-25
2022/01/18 12:05:19;;;;;;;26.47;11.07;;;10.70;99.90;;;;;;5007771;28;20245;-25
2022/01/18 12:07:49;;;;;;;29.67;12.60;;;10.70;99.90;;;;;;5010326;28;20213;-25
2022/01/18 12:10:34;;;;;;;26.87;12.97;;;10.70;99.90;;;;;;5009629;28;20188;-26
2022/01/18 12:13:05;;;;;;;26.17;12.70;;;10.80;99.90;;;;;;5018460;28;20282;-26
2022/01/18 12:15:36;;;;;;;25.90;12.40;;;10.80;99.90;;;;;;5022818;28;20619;-25
2022/01/18 12:18:12;;;;;;;27.87;12.93;;;10.80;99.90;;;;;;5023742;28;20213;-25
2022/01/18 12:20:42;;;;;;;24.73;12.77;;;10.80;99.90;;;;;;5012759;28;20737;-25
2022/01/18 12:23:39;;;;;;;29.10;13.50;;;10.90;99.90;;;;;;5024058;28;20924;-25
2022/01/18 12:34:30;;;;;;;24.93;11.40;;;11.00;99.90;;;;;;5011439;28;20217;-26
2022/01/18 12:37:14;;;;;;;26.17;12.63;;;11.00;99.90;;;;;;5011207;28;20631;-25
2022/01/18 12:39:50;;;;;;;25.03;11.57;;;11.00;99.90;;;;;;5009336;28;20573;-25
2022/01/18 12:45:26;;;;;;;19.20;9.77;;;11.00;99.90;;;;;;5007408;28;20843;-25
2022/01/18 12:48:05;;;;;;;17.23;8.37;;;11.00;99.90;;;;;;4992887;28;20213;-25
2022/01/18 12:50:49;;;;;;;16.07;7.90;;;11.00;99.90;;;;;;5001811;28;20766;-26
2022/01/18 12:53:21;;;;;;;19.23;7.10;;;11.10;99.90;;;;;;5006397;28;20711;-25
2022/01/18 12:55:57;;;;;;;18.57;6.50;;;11.10;99.90;;;;;;5037442;28;20210;-25
2022/01/18 12:58:30;;;;;;;14.53;6.73;;;11.20;99.90;;;;;;5007254;28;20286;-25
2022/01/18 13:01:01;;;;;;;14.47;6.00;;;11.20;99.90;;;;;;5007082;28;20252;-25
2022/01/18 13:03:35;;;;;;;15.00;5.80;;;11.20;99.90;;;;;;5005190;28;20256;-25
2022/01/18 13:06:10;;;;;;;13.00;4.77;;;11.20;99.90;;;;;;4997857;28;20217;-26
2022/01/18 13:08:49;;;;;;;13.37;4.70;;;11.30;99.90;;;;;;5007630;28;20639;-25
2022/01/18 13:11:19;;;;;;;9.23;3.63;;;11.30;99.90;;;;;;5007684;28;20205;-25
2022/01/18 13:25:10;;;;;;;14.00;4.67;;;11.20;99.90;;;;;;4991269;28;20201;-26
2022/01/18 13:27:46;;;;;;;15.50;5.07;;;11.20;99.90;;;;;;5000129;28;20210;-25
2022/01/18 13:30:18;;;;;;;13.03;4.67;;;11.20;99.90;;;;;;5007026;28;20225;-25
2022/01/18 13:32:46;;;;;;;11.03;4.80;;;11.20;99.90;;;;;;5008463;28;20228;-25
2022/01/18 13:35:20;;;;;;;13.27;4.63;;;11.20;99.90;;;;;;5006902;28;20785;-25
2022/01/18 13:37:57;;;;;;;16.93;5.57;;;11.20;99.90;;;;;;5006269;28;20213;-25
2022/01/18 13:40:26;;;;;;;20.07;6.40;;;11.10;99.90;;;;;;5007617;28;20213;-25
2022/01/18 13:43:08;;;;;;;13.80;5.93;;;11.10;99.90;;;;;;5007200;28;20331;-26
2022/01/18 13:45:43;;;;;;;12.73;5.80;;;11.10;99.90;;;;;;5006050;28;20217;-25
2022/01/18 13:48:12;;;;;;;22.30;6.60;;;11.00;99.90;;;;;;5002107;28;20201;-25
2022/01/18 13:50:53;;;;;;;17.07;6.10;;;11.00;99.90;;;;;;4986182;28;20242;-25
2022/01/18 13:53:28;;;;;;;14.20;5.77;;;11.00;99.90;;;;;;5022409;28;20213;-25
2022/01/18 13:56:20;;;;;;;19.33;7.00;;;11.00;99.90;;;;;;5006140;28;20831;-25
2022/01/18 13:58:51;;;;;;;19.67;6.30;;;11.00;99.90;;;;;;5007468;28;20698;-25
2022/01/18 14:01:28;;;;;;;13.20;5.70;;;11.10;99.90;;;;;;5003588;28;20222;-26
2022/01/18 14:04:01;;;;;;;11.83;4.47;;;11.10;99.90;;;;;;4996661;28;20265;-26
2022/01/18 14:06:42;;;;;;;18.43;5.33;;;11.10;99.90;;;;;;5030662;28;20694;-25
2022/01/18 14:09:14;;;;;;;14.43;4.00;;;11.10;99.90;;;;;;5003171;28;20200;-25
2022/01/18 14:11:51;;;;;;;14.40;4.30;;;11.10;99.90;;;;;;4999165;28;20629;-25
2022/01/18 14:14:33;;;;;;;12.60;4.00;;;11.10;99.90;;;;;;5006593;28;20221;-25
2022/01/18 14:17:05;;;;;;;13.83;4.37;;;11.10;99.90;;;;;;5007382;28;20205;-25
2022/01/18 14:19:35;;;;;;;12.87;4.50;;;11.10;99.90;;;;;;5036158;28;20231;-26
2022/01/18 14:22:23;;;;;;;13.80;4.50;;;11.10;99.90;;;;;;5006204;28;20209;-25
2022/01/18 14:24:54;;;;;;;12.57;4.37;;;11.10;99.90;;;;;;5002959;28;20229;-25
2022/01/18 14:27:25;;;;;;;14.40;4.50;;;11.10;99.90;;;;;;5002824;28;20220;-25
2022/01/18 14:30:00;;;;;;;12.70;3.87;;;11.00;99.90;;;;;;5005174;28;20202;-25
2022/01/18 14:32:36;;;;;;;11.87;4.17;;;11.10;99.90;;;;;;4999192;28;20197;-25